Time;durP1;ratioP1;P1;durP2;ratioP2;P2;SDS_P1;SDS_P2;PMS_P1;PMS_P2;Temp;Humidity;BMP_temperature;BMP_pressure;BME280_temperature;BME280_humidity;BME280_pressure;Samples;Min_cycle;Max_cycle;Signal;HPM_P1;HPM_P2
2023/05/21 00:02:16;;;;;;;28.08;13.43;;;29.40;95.20;;;;;;5045000;28;20186;-50
2023/05/21 00:04:44;;;;;;;23.08;11.77;;;29.30;95.20;;;;;;5044861;28;20043;-51
2023/05/21 00:07:11;;;;;;;18.90;10.73;;;29.40;95.30;;;;;;5044814;28;20333;-49
2023/05/21 00:09:38;;;;;;;20.10;10.57;;;29.30;95.20;;;;;;5049857;28;20051;-45
2023/05/21 00:12:08;;;;;;;17.67;8.75;;;29.30;95.40;;;;;;5060732;28;20021;-44
2023/05/21 00:14:36;;;;;;;16.13;7.35;;;29.40;95.60;;;;;;5064542;28;20221;-46
2023/05/21 00:17:03;;;;;;;11.00;6.47;;;29.30;95.50;;;;;;5064684;28;20037;-54
2023/05/21 00:19:31;;;;;;;12.93;6.30;;;29.30;95.60;;;;;;5056366;28;20020;-52
2023/05/21 00:22:01;;;;;;;13.13;6.38;;;29.30;95.70;;;;;;5044564;28;20093;-47
2023/05/21 00:24:28;;;;;;;11.50;6.00;;;29.20;96.00;;;;;;5044538;28;20351;-43
2023/05/21 00:26:55;;;;;;;11.82;6.07;;;29.20;96.20;;;;;;5044545;28;20244;-44
2023/05/21 00:29:22;;;;;;;10.88;5.30;;;29.20;96.40;;;;;;5044613;28;20032;-42
2023/05/21 00:31:51;;;;;;;8.60;5.30;;;29.20;96.50;;;;;;5044497;28;20209;-42
2023/05/21 00:34:17;;;;;;;9.57;5.18;;;29.10;96.60;;;;;;5044959;28;20021;-42
2023/05/21 00:36:45;;;;;;;7.03;4.88;;;29.10;96.70;;;;;;5054007;28;20139;-45
2023/05/21 00:39:16;;;;;;;12.38;5.30;;;29.00;96.70;;;;;;5054287;28;20028;-42
2023/05/21 00:41:45;;;;;;;12.95;5.15;;;28.90;96.80;;;;;;5052461;28;20026;-52
2023/05/21 00:44:12;;;;;;;10.13;5.60;;;28.90;96.80;;;;;;5050457;28;20140;-54
2023/05/21 00:46:40;;;;;;;11.30;4.75;;;29.00;97.00;;;;;;5051979;28;20037;-50
2023/05/21 00:49:06;;;;;;;11.00;5.00;;;29.00;97.00;;;;;;5045818;28;20068;-42
2023/05/21 00:51:33;;;;;;;6.65;4.30;;;28.90;96.90;;;;;;5043989;28;20130;-47
2023/05/21 00:53:59;;;;;;;10.55;4.68;;;28.90;97.00;;;;;;5044557;28;20040;-49
2023/05/21 00:56:26;;;;;;;7.38;3.88;;;28.80;96.90;;;;;;5052607;28;20104;-48
2023/05/21 00:58:57;;;;;;;7.03;3.80;;;28.80;96.90;;;;;;5046638;28;20309;-42
2023/05/21 01:01:26;;;;;;;12.75;4.85;;;28.70;97.00;;;;;;5043970;28;20131;-48
2023/05/21 01:03:57;;;;;;;10.60;4.70;;;28.60;96.90;;;;;;5044992;28;20036;-45
2023/05/21 01:06:23;;;;;;;8.45;4.05;;;28.80;96.90;;;;;;5063910;28;20044;-42
2023/05/21 01:08:50;;;;;;;10.07;4.15;;;28.70;96.80;;;;;;5057890;28;20058;-41
2023/05/21 01:11:17;;;;;;;6.07;4.13;;;28.70;96.80;;;;;;5044243;28;20056;-46
2023/05/21 01:13:45;;;;;;;10.38;4.57;;;28.60;96.70;;;;;;5043695;28;20033;-46
2023/05/21 01:16:16;;;;;;;11.13;4.15;;;28.60;96.90;;;;;;5043793;28;20021;-43
2023/05/21 01:18:43;;;;;;;8.02;4.53;;;28.50;96.90;;;;;;5043962;28;20044;-47
2023/05/21 01:21:10;;;;;;;8.02;4.47;;;28.50;97.00;;;;;;5043661;28;20131;-41
2023/05/21 01:23:37;;;;;;;8.70;5.10;;;28.50;97.10;;;;;;5044022;28;20301;-45
2023/05/21 01:26:03;;;;;;;11.40;5.07;;;28.50;97.10;;;;;;5047483;28;20028;-41
2023/05/21 01:28:32;;;;;;;8.23;5.00;;;28.40;97.20;;;;;;5055027;28;20092;-40
2023/05/21 01:31:04;;;;;;;6.70;4.50;;;28.50;97.30;;;;;;5063592;28;20036;-43
2023/05/21 01:33:52;;;;;;;10.05;5.35;;;28.50;97.30;;;;;;5063731;28;20033;-43
2023/05/21 01:36:26;;;;;;;10.38;5.20;;;28.50;97.20;;;;;;5063486;28;20048;-43
2023/05/21 01:39:01;;;;;;;10.50;4.93;;;28.50;97.30;;;;;;5063714;28;20203;-42
2023/05/21 01:41:32;;;;;;;12.65;4.78;;;28.40;97.40;;;;;;5063121;28;20359;-41
2023/05/21 01:43:59;;;;;;;9.20;4.50;;;28.40;97.40;;;;;;5063354;28;20067;-46
2023/05/21 01:46:30;;;;;;;11.18;4.97;;;28.40;97.60;;;;;;5063245;28;20560;-41
2023/05/21 01:48:57;;;;;;;9.77;4.72;;;28.30;97.60;;;;;;5063733;28;20017;-45
2023/05/21 01:51:24;;;;;;;10.75;4.88;;;28.30;97.70;;;;;;5063227;28;20079;-51
2023/05/21 01:53:51;;;;;;;10.25;4.78;;;28.20;97.80;;;;;;5063713;28;20308;-46
2023/05/21 01:56:18;;;;;;;8.27;4.68;;;28.20;97.90;;;;;;5063372;28;20053;-42
2023/05/21 01:58:44;;;;;;;9.95;4.47;;;28.20;98.10;;;;;;5060749;28;20029;-41
2023/05/21 02:01:11;;;;;;;7.22;4.85;;;28.30;98.20;;;;;;5054129;28;20356;-46
2023/05/21 02:03:37;;;;;;;9.50;5.03;;;28.30;97.90;;;;;;5052229;28;20088;-42
2023/05/21 02:06:05;;;;;;;12.43;5.10;;;28.20;97.90;;;;;;5063227;28;20029;-45
2023/05/21 02:08:33;;;;;;;8.55;4.35;;;28.20;97.70;;;;;;5063468;28;20029;-50
2023/05/21 02:10:59;;;;;;;12.73;4.68;;;28.10;97.80;;;;;;5056764;28;20387;-51
2023/05/21 02:13:27;;;;;;;13.32;4.30;;;28.00;97.80;;;;;;5054675;28;20033;-45
2023/05/21 02:15:55;;;;;;;11.50;3.88;;;27.90;97.30;;;;;;5063246;28;20099;-46
2023/05/21 02:18:21;;;;;;;12.15;3.92;;;27.80;97.60;;;;;;5063434;28;20316;-41
2023/05/21 02:20:48;;;;;;;11.90;4.85;;;27.80;97.20;;;;;;5063028;28;20033;-45
2023/05/21 02:23:15;;;;;;;19.27;5.20;;;27.70;97.10;;;;;;5067116;28;20130;-41
2023/05/21 02:25:41;;;;;;;14.05;3.80;;;27.70;96.80;;;;;;5066911;28;20024;-44
2023/05/21 02:28:09;;;;;;;12.63;5.07;;;27.80;97.00;;;;;;5066983;28;20037;-46
2023/05/21 02:30:36;;;;;;;13.38;4.15;;;27.70;96.80;;;;;;5066856;28;20036;-44
2023/05/21 02:33:03;;;;;;;13.40;4.10;;;27.70;96.70;;;;;;5066910;28;20103;-45
2023/05/21 02:35:31;;;;;;;6.07;3.80;;;27.70;96.80;;;;;;5066492;28;20084;-43
2023/05/21 02:37:58;;;;;;;7.00;3.65;;;27.70;96.70;;;;;;5054236;28;20034;-43
2023/05/21 02:40:24;;;;;;;8.85;3.88;;;27.70;96.60;;;;;;5065377;28;20043;-45
2023/05/21 02:42:51;;;;;;;9.15;3.92;;;27.70;96.60;;;;;;5066326;28;20033;-46
2023/05/21 02:45:17;;;;;;;7.38;3.70;;;27.60;96.60;;;;;;5066121;28;20095;-48
2023/05/21 02:47:44;;;;;;;7.45;3.58;;;27.60;96.60;;;;;;5066433;28;20033;-49
2023/05/21 02:50:10;;;;;;;9.15;3.97;;;27.60;96.60;;;;;;5066323;28;20209;-46
2023/05/21 02:52:37;;;;;;;9.18;4.15;;;27.60;96.70;;;;;;5066215;28;20079;-47
2023/05/21 02:55:03;;;;;;;9.52;4.22;;;27.50;96.60;;;;;;5056069;28;20202;-47
2023/05/21 02:57:30;;;;;;;14.13;4.30;;;27.60;96.80;;;;;;5054209;28;20217;-49
2023/05/21 02:59:56;;;;;;;11.52;4.70;;;27.70;96.90;;;;;;5053452;28;20037;-51
2023/05/21 03:02:23;;;;;;;8.77;4.70;;;27.80;97.00;;;;;;5055050;28;20084;-44
2023/05/21 03:04:50;;;;;;;8.57;4.90;;;27.90;97.00;;;;;;5055563;28;20033;-45
2023/05/21 03:07:18;;;;;;;11.68;6.68;;;28.00;97.00;;;;;;5053791;28;20025;-40
2023/05/21 03:09:45;;;;;;;12.77;6.03;;;28.00;97.10;;;;;;5054647;28;20305;-46
2023/05/21 03:12:11;;;;;;;7.18;4.88;;;28.00;97.20;;;;;;5046854;28;20029;-44
2023/05/21 03:14:38;;;;;;;7.07;4.60;;;28.10;97.10;;;;;;5056250;28;20026;-49
2023/05/21 03:17:05;;;;;;;7.65;4.63;;;28.00;97.20;;;;;;5054366;28;20029;-43
2023/05/21 03:19:35;;;;;;;9.95;4.50;;;28.10;97.30;;;;;;5056368;28;20191;-45
2023/05/21 03:22:05;;;;;;;8.02;4.63;;;28.00;97.50;;;;;;5065384;28;20215;-45
2023/05/21 03:24:32;;;;;;;10.73;4.75;;;28.10;97.60;;;;;;5065518;28;20039;-44
2023/05/21 03:27:02;;;;;;;7.15;4.82;;;28.10;97.80;;;;;;5065670;28;20073;-49
2023/05/21 03:29:28;;;;;;;9.43;4.25;;;28.10;98.10;;;;;;5065492;28;20095;-49
2023/05/21 03:31:56;;;;;;;10.13;4.97;;;27.90;98.10;;;;;;5065697;28;20029;-44
2023/05/21 03:34:23;;;;;;;8.73;4.60;;;27.90;98.40;;;;;;5064768;28;20036;-40
2023/05/21 03:36:51;;;;;;;8.50;4.85;;;27.90;98.40;;;;;;5065284;28;20024;-42
2023/05/21 03:39:18;;;;;;;10.25;5.30;;;27.80;98.50;;;;;;5065516;28;20059;-42
2023/05/21 03:41:44;;;;;;;9.48;5.25;;;27.80;98.70;;;;;;5064790;28;20021;-47
2023/05/21 03:44:11;;;;;;;8.55;4.90;;;27.70;98.70;;;;;;5056322;28;20050;-45
2023/05/21 03:46:37;;;;;;;11.05;5.15;;;27.70;98.70;;;;;;5045121;28;20022;-40
2023/05/21 03:49:04;;;;;;;8.57;4.70;;;27.80;98.60;;;;;;5045683;28;20071;-42
2023/05/21 03:51:31;;;;;;;9.80;5.25;;;27.80;98.50;;;;;;5049197;28;20325;-44
2023/05/21 03:53:58;;;;;;;10.95;5.25;;;27.90;98.40;;;;;;5061659;28;20033;-42
2023/05/21 03:56:25;;;;;;;9.32;5.25;;;28.00;98.20;;;;;;5065166;28;20021;-48
2023/05/21 03:58:51;;;;;;;8.07;4.43;;;28.00;98.10;;;;;;5065345;28;20041;-41
2023/05/21 04:01:18;;;;;;;11.00;4.78;;;28.00;98.10;;;;;;5065318;28;20322;-40
2023/05/21 04:03:46;;;;;;;10.55;4.95;;;28.00;98.00;;;;;;5065314;28;20071;-42
2023/05/21 04:06:12;;;;;;;9.93;4.50;;;28.10;98.00;;;;;;5064712;28;20090;-44
2023/05/21 04:08:39;;;;;;;8.25;4.50;;;28.10;97.90;;;;;;5065355;28;20029;-48
2023/05/21 04:11:05;;;;;;;9.10;4.45;;;28.10;97.90;;;;;;5064640;28;20041;-42
2023/05/21 04:13:32;;;;;;;8.30;6.00;;;28.00;97.80;;;;;;5064978;28;20056;-42
2023/05/21 04:15:58;;;;;;;11.13;6.10;;;28.10;97.80;;;;;;5064718;28;20096;-42
2023/05/21 04:18:25;;;;;;;17.33;8.88;;;28.00;97.70;;;;;;5065103;28;20029;-41
2023/05/21 04:20:52;;;;;;;8.93;6.80;;;28.10;97.60;;;;;;5064511;28;20029;-48
2023/05/21 04:23:19;;;;;;;14.38;7.57;;;28.10;97.50;;;;;;5064823;28;20032;-45
2023/05/21 04:25:49;;;;;;;7.93;7.07;;;28.10;97.50;;;;;;5058080;28;20078;-41
2023/05/21 04:28:18;;;;;;;9.57;6.53;;;28.10;97.40;;;;;;5058325;28;20032;-47
2023/05/21 04:30:46;;;;;;;12.43;6.07;;;28.10;97.40;;;;;;5064375;28;20025;-47
2023/05/21 04:33:16;;;;;;;8.20;5.10;;;28.10;97.30;;;;;;5064693;28;20182;-43
2023/05/21 04:35:45;;;;;;;8.10;4.63;;;28.10;97.30;;;;;;5064097;28;20080;-43
2023/05/21 04:38:11;;;;;;;8.73;4.20;;;28.10;97.40;;;;;;5064359;28;20036;-48
2023/05/21 04:40:39;;;;;;;6.47;4.22;;;28.00;97.10;;;;;;5064219;28;20086;-42
2023/05/21 04:43:06;;;;;;;8.70;4.28;;;28.10;97.20;;;;;;5064429;28;20067;-43
2023/05/21 04:45:34;;;;;;;7.82;3.80;;;28.00;97.00;;;;;;5064328;28;20289;-41
2023/05/21 04:48:01;;;;;;;7.43;3.75;;;28.00;97.00;;;;;;5063292;28;20228;-40
2023/05/21 04:50:32;;;;;;;6.50;4.18;;;28.10;97.10;;;;;;5064099;28;20024;-40
2023/05/21 04:53:00;;;;;;;10.77;4.05;;;28.00;97.20;;;;;;5062397;28;20025;-42
2023/05/21 04:55:39;;;;;;;7.75;4.15;;;28.10;97.30;;;;;;5054428;28;20028;-41
2023/05/21 04:58:06;;;;;;;9.25;4.05;;;28.00;97.30;;;;;;5064493;28;20047;-39
2023/05/21 05:00:33;;;;;;;9.75;4.32;;;28.00;97.40;;;;;;5064354;28;20048;-40
2023/05/21 05:03:00;;;;;;;8.52;4.70;;;28.00;97.50;;;;;;5064125;28;20070;-46
2023/05/21 05:05:26;;;;;;;9.10;4.10;;;28.00;97.60;;;;;;5063885;28;20028;-40
2023/05/21 05:07:52;;;;;;;6.85;3.75;;;28.00;97.60;;;;;;5064147;28;20039;-50
2023/05/21 05:10:19;;;;;;;9.00;3.90;;;27.90;97.70;;;;;;5063688;28;20055;-45
2023/05/21 05:12:45;;;;;;;7.93;3.63;;;27.90;97.60;;;;;;5051531;28;20260;-39
2023/05/21 05:15:12;;;;;;;10.40;4.20;;;27.90;97.60;;;;;;5063511;28;20056;-48
2023/05/21 05:17:38;;;;;;;6.85;3.95;;;27.80;97.60;;;;;;5063926;28;20025;-45
2023/05/21 05:20:07;;;;;;;9.88;4.13;;;27.90;97.70;;;;;;5064064;28;20035;-46
2023/05/21 05:22:33;;;;;;;14.90;3.92;;;27.80;97.60;;;;;;5063772;28;20158;-41
2023/05/21 05:25:00;;;;;;;7.05;3.55;;;27.80;97.60;;;;;;5053948;28;20032;-50
2023/05/21 05:27:26;;;;;;;6.72;3.50;;;27.80;97.60;;;;;;5052798;28;20033;-41
2023/05/21 05:29:53;;;;;;;6.00;3.05;;;27.80;97.50;;;;;;5044033;28;20020;-46
2023/05/21 05:32:19;;;;;;;7.15;2.90;;;27.80;97.50;;;;;;5043659;28;20030;-48
2023/05/21 05:34:46;;;;;;;6.05;2.92;;;27.80;97.50;;;;;;5043907;28;20041;-44
2023/05/21 05:37:12;;;;;;;8.45;3.05;;;27.80;97.40;;;;;;5043714;28;20036;-41
2023/05/21 05:39:39;;;;;;;6.43;2.90;;;27.80;97.30;;;;;;5044700;28;20171;-42
2023/05/21 05:42:05;;;;;;;6.80;2.55;;;27.70;97.30;;;;;;5058868;28;20328;-47
2023/05/21 05:44:32;;;;;;;4.18;2.50;;;27.80;97.30;;;;;;5052372;28;20033;-44
2023/05/21 05:46:58;;;;;;;3.95;2.45;;;27.80;97.20;;;;;;5051893;28;20029;-42
2023/05/21 05:49:25;;;;;;;6.45;2.72;;;27.70;97.20;;;;;;5063438;28;20322;-42
2023/05/21 05:51:51;;;;;;;5.90;2.50;;;27.70;97.20;;;;;;5055622;28;20035;-41
2023/05/21 05:54:18;;;;;;;4.13;2.42;;;27.70;97.20;;;;;;5043615;28;20021;-41
2023/05/21 05:56:44;;;;;;;5.68;2.70;;;27.70;97.20;;;;;;5045036;28;20037;-41
2023/05/21 05:59:11;;;;;;;6.22;2.63;;;27.70;97.20;;;;;;5047461;28;20093;-41
2023/05/21 06:01:37;;;;;;;3.75;2.80;;;27.60;97.30;;;;;;5047496;28;20030;-41
2023/05/21 06:04:04;;;;;;;3.83;2.50;;;27.60;97.30;;;;;;5047136;28;20038;-42
2023/05/21 06:06:30;;;;;;;3.20;1.95;;;27.70;97.40;;;;;;5047506;28;20321;-41
2023/05/21 06:08:57;;;;;;;5.32;2.20;;;27.70;97.30;;;;;;5047772;28;20083;-40
2023/05/21 06:11:23;;;;;;;4.38;2.72;;;27.70;97.40;;;;;;5046992;28;20115;-42
2023/05/21 06:13:50;;;;;;;6.63;3.28;;;27.70;97.50;;;;;;5047692;28;20033;-40
2023/05/21 06:16:16;;;;;;;5.82;3.05;;;27.70;97.60;;;;;;5047233;28;20071;-44
2023/05/21 06:18:43;;;;;;;6.95;3.17;;;27.70;97.90;;;;;;5047385;28;20045;-41
2023/05/21 06:21:09;;;;;;;6.38;2.88;;;27.70;97.90;;;;;;5047277;28;20042;-41
2023/05/21 06:23:36;;;;;;;7.32;3.10;;;27.60;97.90;;;;;;5047632;28;20056;-50
2023/05/21 06:26:05;;;;;;;11.95;3.22;;;27.60;98.00;;;;;;5046840;28;20026;-47
2023/05/21 06:28:32;;;;;;;6.97;3.30;;;27.60;98.00;;;;;;5059874;28;20024;-41
2023/05/21 06:30:58;;;;;;;8.07;3.08;;;27.60;98.10;;;;;;5066873;28;20017;-42
2023/05/21 06:33:26;;;;;;;7.22;2.83;;;27.60;98.10;;;;;;5067146;28;20037;-43
2023/05/21 06:35:52;;;;;;;11.13;2.63;;;27.60;98.10;;;;;;5066792;28;20305;-46
2023/05/21 06:38:19;;;;;;;6.25;2.40;;;27.50;98.10;;;;;;5067197;28;20238;-47
2023/05/21 06:40:46;;;;;;;5.40;2.15;;;27.50;98.00;;;;;;5066700;28;20035;-46
2023/05/21 06:43:13;;;;;;;6.32;2.38;;;27.50;97.90;;;;;;5066704;28;20526;-49
2023/05/21 06:45:40;;;;;;;7.20;2.08;;;27.50;97.90;;;;;;5066638;28;20028;-46
2023/05/21 06:48:06;;;;;;;3.05;1.80;;;27.40;97.80;;;;;;5066900;28;20268;-42
2023/05/21 06:50:33;;;;;;;3.28;1.80;;;27.40;97.80;;;;;;5066507;28;20016;-44
2023/05/21 06:53:00;;;;;;;7.20;2.10;;;27.50;97.70;;;;;;5066739;28;20100;-43
2023/05/21 06:55:27;;;;;;;6.18;2.35;;;27.40;97.60;;;;;;5066489;28;20249;-43
2023/05/21 06:57:53;;;;;;;5.28;2.08;;;27.30;97.60;;;;;;5060456;28;20033;-45
2023/05/21 07:00:20;;;;;;;6.90;2.60;;;27.30;97.50;;;;;;5050390;28;20028;-46
2023/05/21 07:02:46;;;;;;;8.27;2.42;;;27.30;97.70;;;;;;5063978;28;20052;-41
2023/05/21 07:05:13;;;;;;;7.38;2.40;;;27.30;97.70;;;;;;5066061;28;20088;-39
2023/05/21 07:07:39;;;;;;;5.18;2.35;;;27.20;97.70;;;;;;5065430;28;20071;-45
2023/05/21 07:10:07;;;;;;;7.07;2.20;;;27.20;97.70;;;;;;5065850;28;20041;-41
2023/05/21 07:12:33;;;;;;;9.13;3.20;;;27.20;97.60;;;;;;5055575;28;20029;-42
2023/05/21 07:15:00;;;;;;;9.73;2.97;;;27.20;97.60;;;;;;5046302;28;20095;-42
2023/05/21 07:17:26;;;;;;;10.23;3.10;;;27.10;97.50;;;;;;5046172;28;20029;-40
2023/05/21 07:19:53;;;;;;;7.25;2.65;;;27.10;97.80;;;;;;5049819;28;20025;-42
2023/05/21 07:22:19;;;;;;;7.25;2.85;;;27.10;97.60;;;;;;5052789;28;20365;-42
2023/05/21 07:24:46;;;;;;;8.48;2.65;;;27.10;97.70;;;;;;5045896;28;20089;-46
2023/05/21 07:27:12;;;;;;;9.02;2.80;;;27.10;97.80;;;;;;5045764;28;20021;-40
2023/05/21 07:29:39;;;;;;;7.43;2.30;;;27.10;97.80;;;;;;5046095;28;20029;-42
2023/05/21 07:32:06;;;;;;;8.60;3.20;;;27.10;97.80;;;;;;5045979;28;20017;-43
2023/05/21 07:34:32;;;;;;;7.75;3.10;;;27.00;97.90;;;;;;5045654;28;20032;-44
2023/05/21 07:36:59;;;;;;;11.80;3.50;;;27.10;98.00;;;;;;5045788;28;20029;-44
2023/05/21 07:39:25;;;;;;;9.35;3.25;;;27.10;98.10;;;;;;5045711;28;20025;-41
2023/05/21 07:41:52;;;;;;;8.40;2.88;;;27.10;98.10;;;;;;5045432;28;20028;-43
2023/05/21 07:44:18;;;;;;;5.32;2.50;;;27.10;98.00;;;;;;5045503;28;20029;-41
2023/05/21 07:46:44;;;;;;;8.45;2.60;;;27.10;98.00;;;;;;5045517;28;20100;-44
2023/05/21 07:49:15;;;;;;;8.30;2.50;;;27.00;98.10;;;;;;5045865;28;20029;-42
2023/05/21 07:51:43;;;;;;;6.32;2.42;;;27.00;98.10;;;;;;5045437;28;20021;-42
2023/05/21 07:54:09;;;;;;;5.80;2.30;;;27.00;98.20;;;;;;5045925;28;20092;-45
2023/05/21 07:56:36;;;;;;;6.47;2.60;;;27.10;98.20;;;;;;5045542;28;20029;-43
2023/05/21 07:59:02;;;;;;;6.00;1.85;;;27.10;98.20;;;;;;5045748;28;20038;-43
2023/05/21 08:01:29;;;;;;;5.30;2.10;;;27.10;98.20;;;;;;5045274;28;20336;-45
2023/05/21 08:03:59;;;;;;;6.93;1.85;;;27.00;98.20;;;;;;5045477;28;20101;-42
2023/05/21 08:06:25;;;;;;;3.47;1.80;;;27.00;98.10;;;;;;5045493;28;20310;-44
2023/05/21 08:08:53;;;;;;;4.07;1.85;;;27.00;98.20;;;;;;5045553;28;20234;-42
2023/05/21 08:11:20;;;;;;;4.70;1.60;;;27.00;98.30;;;;;;5044859;28;20221;-48
2023/05/21 08:13:47;;;;;;;5.15;1.92;;;27.10;98.30;;;;;;5045448;28;20037;-41
2023/05/21 08:16:15;;;;;;;3.72;1.60;;;27.10;98.20;;;;;;5044986;28;20233;-44
2023/05/21 08:18:41;;;;;;;3.92;1.65;;;27.00;98.20;;;;;;5044999;28;20324;-43
2023/05/21 08:21:08;;;;;;;5.40;1.85;;;27.10;98.30;;;;;;5044791;28;20152;-41
2023/05/21 08:23:35;;;;;;;3.45;1.70;;;27.00;98.20;;;;;;5045110;28;20041;-45
2023/05/21 08:26:01;;;;;;;3.50;1.63;;;27.00;98.20;;;;;;5044678;28;20092;-48
2023/05/21 08:28:28;;;;;;;3.75;1.50;;;27.00;98.30;;;;;;5044736;28;20042;-49
2023/05/21 08:30:54;;;;;;;4.22;1.80;;;27.10;98.30;;;;;;5051069;28;20025;-45
2023/05/21 08:33:21;;;;;;;3.55;1.73;;;27.00;98.20;;;;;;5045806;28;20075;-41
2023/05/21 08:35:47;;;;;;;2.70;1.63;;;27.00;98.30;;;;;;5044598;28;20333;-50
2023/05/21 08:38:15;;;;;;;2.70;1.50;;;27.10;98.30;;;;;;5044840;28;20029;-45
2023/05/21 08:40:42;;;;;;;2.53;1.60;;;27.10;98.20;;;;;;5063719;28;20025;-42
2023/05/21 08:43:12;;;;;;;1.70;1.35;;;27.00;98.20;;;;;;5064683;28;20033;-43
2023/05/21 08:45:43;;;;;;;2.05;1.40;;;27.00;98.20;;;;;;5064701;28;20024;-43
2023/05/21 08:48:11;;;;;;;2.88;1.33;;;27.00;98.20;;;;;;5064519;28;20039;-43
2023/05/21 08:50:38;;;;;;;3.78;1.55;;;27.00;98.20;;;;;;5064314;28;20032;-42
2023/05/21 08:53:04;;;;;;;2.17;1.50;;;27.00;98.30;;;;;;5064434;28;20029;-49
2023/05/21 08:55:33;;;;;;;2.78;1.63;;;27.00;98.30;;;;;;5064179;28;20029;-42
2023/05/21 08:58:00;;;;;;;5.32;1.90;;;27.00;98.30;;;;;;5064426;28;20052;-41
2023/05/21 09:00:26;;;;;;;2.45;1.48;;;27.00;98.40;;;;;;5064133;28;20029;-46
2023/05/21 09:02:54;;;;;;;4.10;1.77;;;27.00;98.40;;;;;;5063887;28;20036;-41
2023/05/21 09:05:23;;;;;;;5.20;1.95;;;27.00;98.40;;;;;;5063986;28;20040;-41
2023/05/21 09:08:06;;;;;;;4.05;2.00;;;27.00;98.40;;;;;;5049535;28;20059;-45
2023/05/21 09:10:40;;;;;;;3.75;1.80;;;27.10;98.60;;;;;;5043902;28;20053;-43
2023/05/21 09:13:08;;;;;;;3.35;1.80;;;27.00;98.60;;;;;;5045591;28;20059;-46
2023/05/21 09:15:35;;;;;;;3.88;2.03;;;27.00;98.60;;;;;;5043875;28;20053;-42
2023/05/21 09:18:02;;;;;;;4.40;2.50;;;27.00;98.60;;;;;;5044157;28;20041;-39
2023/05/21 09:20:29;;;;;;;9.23;2.42;;;27.10;98.50;;;;;;5043960;28;20322;-46
2023/05/21 09:22:55;;;;;;;4.00;2.20;;;27.00;98.40;;;;;;5044010;28;20033;-43
2023/05/21 09:25:28;;;;;;;2.78;2.17;;;26.90;98.40;;;;;;5043818;28;20057;-49
2023/05/21 09:27:56;;;;;;;4.22;2.25;;;27.00;98.50;;;;;;5044094;28;20033;-42
2023/05/21 09:30:23;;;;;;;5.20;3.72;;;27.00;98.50;;;;;;5043506;28;20030;-42
2023/05/21 09:32:55;;;;;;;6.43;3.95;;;26.90;98.40;;;;;;5043553;28;20276;-42
2023/05/21 09:35:21;;;;;;;8.30;4.45;;;27.00;98.50;;;;;;5057758;28;20033;-42
2023/05/21 09:37:49;;;;;;;6.28;4.53;;;26.90;98.60;;;;;;5043805;28;20038;-47
2023/05/21 09:40:18;;;;;;;5.97;3.80;;;27.00;98.70;;;;;;5043747;28;20356;-44
2023/05/21 09:42:52;;;;;;;4.45;2.92;;;27.00;98.70;;;;;;5043795;28;20029;-44
2023/05/21 09:45:27;;;;;;;4.20;2.30;;;27.00;98.50;;;;;;5043662;28;20037;-45
2023/05/21 09:47:55;;;;;;;5.25;2.67;;;27.00;98.50;;;;;;5044033;28;20031;-42
2023/05/21 09:50:27;;;;;;;5.05;3.05;;;26.90;98.50;;;;;;5043569;28;20032;-44
2023/05/21 09:52:55;;;;;;;4.18;2.42;;;27.00;98.60;;;;;;5043964;28;20092;-41
2023/05/21 09:55:25;;;;;;;2.30;2.00;;;26.90;98.50;;;;;;5043596;28;20036;-39
2023/05/21 09:57:52;;;;;;;7.20;2.20;;;26.90;98.50;;;;;;5043625;28;20202;-48
2023/05/21 10:00:24;;;;;;;2.47;1.77;;;26.90;98.40;;;;;;5043650;28;20026;-44
2023/05/21 10:02:54;;;;;;;3.60;2.40;;;26.90;98.50;;;;;;5043673;28;20030;-51
2023/05/21 10:05:25;;;;;;;4.22;2.45;;;26.80;98.50;;;;;;5043432;28;20186;-45
2023/05/21 10:07:55;;;;;;;3.45;2.20;;;26.90;98.70;;;;;;5043623;28;20101;-43
2023/05/21 10:10:22;;;;;;;2.97;2.05;;;26.90;98.70;;;;;;5043249;28;20038;-42
2023/05/21 10:13:05;;;;;;;2.60;2.10;;;26.90;98.60;;;;;;5060647;28;20139;-42
2023/05/21 10:15:44;;;;;;;3.13;1.90;;;26.90;98.70;;;;;;5063259;28;20483;-50
2023/05/21 10:18:12;;;;;;;3.60;2.10;;;26.90;98.90;;;;;;5063785;28;20092;-50
2023/05/21 10:20:40;;;;;;;4.60;2.30;;;26.90;98.90;;;;;;5063284;28;20029;-43
2023/05/21 10:23:07;;;;;;;3.40;2.00;;;26.90;98.90;;;;;;5063417;28;20048;-42
2023/05/21 10:25:35;;;;;;;4.90;2.20;;;26.90;98.90;;;;;;5063182;28;20041;-40
2023/05/21 10:28:02;;;;;;;3.58;2.22;;;26.90;98.80;;;;;;5063494;28;20021;-41
2023/05/21 10:30:29;;;;;;;6.25;1.95;;;26.80;98.80;;;;;;5063109;28;20029;-44
2023/05/21 10:32:55;;;;;;;4.75;2.25;;;26.80;98.90;;;;;;5063286;28;20025;-42
2023/05/21 10:35:23;;;;;;;2.90;2.30;;;26.90;99.20;;;;;;5063130;28;20052;-40
2023/05/21 10:37:52;;;;;;;4.05;2.13;;;26.90;99.00;;;;;;5063250;28;20036;-46
2023/05/21 10:40:19;;;;;;;5.00;2.40;;;26.90;98.90;;;;;;5063113;28;20217;-46
2023/05/21 10:43:01;;;;;;;3.72;2.50;;;26.90;98.90;;;;;;5064783;28;20300;-50
2023/05/21 10:45:50;;;;;;;8.43;2.47;;;26.90;99.10;;;;;;5066665;28;20028;-41
2023/05/21 10:48:37;;;;;;;7.78;2.38;;;26.90;99.00;;;;;;5065517;28;20284;-46
2023/05/21 10:51:09;;;;;;;5.20;2.60;;;26.90;99.10;;;;;;5066772;28;20216;-47
2023/05/21 10:54:05;;;;;;;4.82;2.50;;;26.90;99.20;;;;;;5066748;28;20037;-48
2023/05/21 10:56:45;;;;;;;5.55;2.40;;;26.90;99.20;;;;;;5066406;28;20040;-44
2023/05/21 10:59:40;;;;;;;9.40;3.30;;;26.90;99.20;;;;;;5066367;28;20029;-42
2023/05/21 11:02:08;;;;;;;8.32;3.22;;;26.90;99.20;;;;;;5066008;28;20071;-42
2023/05/21 11:04:38;;;;;;;22.83;2.65;;;26.90;99.30;;;;;;5066395;28;20028;-40
2023/05/21 11:07:05;;;;;;;12.57;2.80;;;26.90;99.30;;;;;;5066077;28;20066;-42
2023/05/21 11:09:32;;;;;;;10.75;3.03;;;26.90;99.30;;;;;;5066053;28;20093;-43
2023/05/21 11:12:03;;;;;;;9.95;2.45;;;26.90;99.50;;;;;;5066132;28;20017;-47
2023/05/21 11:14:39;;;;;;;9.00;2.77;;;26.90;99.30;;;;;;5057936;28;20034;-45
2023/05/21 11:17:11;;;;;;;9.65;3.40;;;26.90;99.30;;;;;;5046101;28;20028;-50
2023/05/21 11:19:39;;;;;;;12.05;3.22;;;26.90;99.40;;;;;;5046063;28;20233;-43
2023/05/21 11:22:22;;;;;;;10.07;3.20;;;26.90;99.40;;;;;;5046071;28;20139;-45
2023/05/21 11:24:49;;;;;;;14.15;2.97;;;26.90;99.30;;;;;;5045986;28;20045;-46
2023/05/21 11:27:37;;;;;;;6.55;2.72;;;26.80;99.20;;;;;;5045890;28;20017;-43
2023/05/21 11:30:08;;;;;;;5.75;2.40;;;26.90;99.30;;;;;;5045843;28;20021;-43
2023/05/21 11:33:14;;;;;;;6.65;2.60;;;26.90;99.30;;;;;;5045761;28;20042;-43
2023/05/21 11:35:53;;;;;;;5.00;2.78;;;26.80;99.30;;;;;;5045694;28;20045;-47
2023/05/21 11:38:20;;;;;;;4.55;2.78;;;26.80;99.20;;;;;;5046216;28;20067;-40
2023/05/21 11:40:53;;;;;;;6.30;2.80;;;26.80;99.20;;;;;;5045887;28;20305;-41
2023/05/21 11:43:20;;;;;;;4.82;2.88;;;26.80;99.20;;;;;;5045563;28;20029;-44
2023/05/21 11:45:47;;;;;;;5.35;3.05;;;26.80;99.30;;;;;;5045624;28;20100;-43
2023/05/21 11:48:14;;;;;;;3.60;2.58;;;26.80;99.20;;;;;;5045717;28;20025;-41
2023/05/21 11:50:43;;;;;;;6.30;2.83;;;26.80;99.20;;;;;;5045639;28;20049;-42
2023/05/21 11:53:11;;;;;;;4.78;2.60;;;26.80;99.20;;;;;;5045767;28;20072;-39
2023/05/21 11:55:42;;;;;;;3.65;2.20;;;26.80;99.20;;;;;;5044679;28;20033;-41
2023/05/21 11:58:12;;;;;;;4.82;2.45;;;26.80;99.20;;;;;;5045616;28;20037;-43
2023/05/21 12:00:39;;;;;;;3.63;2.33;;;26.80;99.30;;;;;;5045284;28;20225;-41
2023/05/21 12:03:07;;;;;;;4.45;2.20;;;26.80;99.30;;;;;;5045415;28;20037;-42
2023/05/21 12:05:49;;;;;;;4.28;2.00;;;26.90;99.40;;;;;;5045135;28;20032;-40
2023/05/21 12:08:25;;;;;;;;;;;26.90;99.50;;;;;;5045772;28;20041;-41
2023/05/21 12:11:00;;;;;;;3.88;2.40;;;26.90;99.40;;;;;;5045000;28;19997;-45
2023/05/21 12:13:27;;;;;;;6.43;3.17;;;26.90;99.50;;;;;;5045286;28;20353;-45
2023/05/21 12:15:54;;;;;;;4.15;2.42;;;26.90;99.50;;;;;;5044986;28;20021;-49
2023/05/21 12:18:21;;;;;;;4.13;2.42;;;26.90;99.50;;;;;;5045220;28;20079;-41
2023/05/21 12:20:47;;;;;;;3.70;2.10;;;26.90;99.60;;;;;;5044885;28;20092;-41
2023/05/21 12:23:24;;;;;;;9.13;2.22;;;27.00;99.60;;;;;;5045360;28;20017;-44
2023/05/21 12:25:52;;;;;;;4.55;2.25;;;27.00;99.60;;;;;;5044814;28;20042;-42
2023/05/21 12:28:21;;;;;;;3.72;1.90;;;27.00;99.60;;;;;;5044629;28;20055;-41
2023/05/21 12:30:47;;;;;;;5.88;1.75;;;27.00;99.60;;;;;;5044636;28;20040;-46
2023/05/21 12:33:16;;;;;;;6.03;1.92;;;27.00;99.60;;;;;;5045062;28;20070;-43
2023/05/21 12:35:49;;;;;;;3.15;1.75;;;27.00;99.70;;;;;;5044573;28;20097;-43
2023/05/21 12:38:15;;;;;;;3.63;2.13;;;27.00;99.60;;;;;;5044870;28;20025;-44
2023/05/21 12:40:44;;;;;;;9.27;1.80;;;27.10;99.80;;;;;;5044609;28;20047;-39
2023/05/21 12:43:10;;;;;;;38.33;3.85;;;27.10;99.80;;;;;;5044812;28;20041;-39
2023/05/21 12:45:40;;;;;;;27.27;3.20;;;27.10;99.90;;;;;;5044585;28;20044;-41
2023/05/21 12:48:07;;;;;;;10.70;2.30;;;27.10;99.80;;;;;;5044683;28;20045;-40
2023/05/21 12:50:34;;;;;;;13.43;3.10;;;27.00;99.70;;;;;;5054938;28;20083;-40
2023/05/21 12:53:01;;;;;;;18.65;3.10;;;27.10;99.80;;;;;;5044546;28;20064;-43